Time;durP1;ratioP1;P1;durP2;ratioP2;P2;SDS_P1;SDS_P2;PMS_P1;PMS_P2;Temp;Humidity;BMP_temperature;BMP_pressure;BME280_temperature;BME280_humidity;BME280_pressure;Samples;Min_cycle;Max_cycle;Signal;HPM_P1;HPM_P2
2023/07/12 00:02:10;;;;;;;11.20;6.80;;;;;;;;;;4988929;28;20038;-62
2023/07/12 00:04:36;;;;;;;14.67;9.37;;;;;;;;;;4988416;28;20104;-62
2023/07/12 00:07:02;;;;;;;11.60;7.70;;;;;;;;;;4988765;28;20050;-62
2023/07/12 00:09:28;;;;;;;13.73;9.20;;;;;;;;;;4988159;28;20136;-62
2023/07/12 00:11:54;;;;;;;15.50;10.07;;;;;;;;;;4988530;28;20042;-62
2023/07/12 00:14:20;;;;;;;14.27;7.80;;;;;;;;;;4988726;28;20046;-62
2023/07/12 00:16:46;;;;;;;9.20;6.90;;;;;;;;;;4988670;28;20049;-62
2023/07/12 00:19:15;;;;;;;11.63;8.00;;;;;;;;;;4988547;28;20078;-62
2023/07/12 00:21:41;;;;;;;17.47;8.87;;;;;;;;;;4987794;28;20042;-61
2023/07/12 00:24:08;;;;;;;12.10;8.17;;;;;;;;;;4991833;28;20101;-62
2023/07/12 00:26:36;;;;;;;11.13;6.93;;;;;;;;;;4992312;28;20070;-62
2023/07/12 00:29:03;;;;;;;15.37;8.27;;;;;;;;;;4991851;28;20490;-61
2023/07/12 00:31:29;;;;;;;14.07;8.43;;;;;;;;;;4992060;28;20086;-61
2023/07/12 00:33:56;;;;;;;11.33;7.73;;;;;;;;;;4991623;28;20056;-62
2023/07/12 00:36:23;;;;;;;12.20;7.27;;;;;;;;;;4991905;28;20045;-61
2023/07/12 00:38:49;;;;;;;11.47;7.10;;;;;;;;;;4992046;28;20185;-62
2023/07/12 00:41:36;;;;;;;11.17;7.37;;;;;;;;;;4991062;28;20043;-62
2023/07/12 00:44:04;;;;;;;11.60;6.50;;;;;;;;;;4941933;28;20050;-62
2023/07/12 00:46:33;;;;;;;13.13;7.70;;;;;;;;;;4978911;28;20054;-62
2023/07/12 00:48:59;;;;;;;10.47;7.03;;;;;;;;;;4991408;28;20144;-61
2023/07/12 00:51:33;;;;;;;15.30;8.40;;;;;;;;;;4991414;28;20077;-62
2023/07/12 00:53:59;;;;;;;;;;;;;;;;;;4992258;28;20401;-62
2023/07/12 00:56:25;;;;;;;11.37;7.60;;;;;;;;;;4990450;28;19922;-62
2023/07/12 00:58:53;;;;;;;12.63;8.47;;;;;;;;;;4991228;28;20046;-62
2023/07/12 01:01:21;;;;;;;9.17;7.80;;;;;;;;;;4991008;28;20042;-62
2023/07/12 01:03:47;;;;;;;8.57;7.10;;;;;;;;;;4991386;28;20042;-62
2023/07/12 01:06:15;;;;;;;11.70;8.33;;;;;;;;;;4991750;28;20070;-62
2023/07/12 01:08:42;;;;;;;10.40;6.73;;;;;;;;;;4991536;28;21137;-62
2023/07/12 01:11:09;;;;;;;14.73;8.47;;;;;;;;;;4991420;28;20042;-61
2023/07/12 01:13:35;;;;;;;10.90;6.67;;;;;;;;;;4991005;28;20038;-62
2023/07/12 01:16:02;;;;;;;9.17;6.37;;;;;;;;;;4991144;28;20073;-62
2023/07/12 01:18:28;;;;;;;10.67;6.13;;;;;;;;;;4991083;28;20049;-62
2023/07/12 01:21:05;;;;;;;13.67;6.97;;;;;;;;;;4991078;28;20042;-61
2023/07/12 01:23:32;;;;;;;14.60;7.07;;;;;;;;;;4991112;28;20141;-62
2023/07/12 01:26:13;;;;;;;10.30;7.27;;;;;;;;;;4990376;28;20515;-62
2023/07/12 01:28:39;;;;;;;8.83;6.33;;;;;;;;;;4991274;28;20047;-61
2023/07/12 01:31:05;;;;;;;11.20;6.73;;;;;;;;;;4990496;28;20034;-62
2023/07/12 01:33:31;;;;;;;14.60;8.57;;;;;;;;;;4990530;28;20053;-61
2023/07/12 01:35:57;;;;;;;10.97;7.70;;;;;;;;;;4990837;28;20369;-62
2023/07/12 01:38:23;;;;;;;12.23;7.63;;;;;;;;;;4991286;28;20448;-62
2023/07/12 01:40:49;;;;;;;14.83;7.13;;;;;;;;;;4990476;28;20049;-62
2023/07/12 01:43:15;;;;;;;10.67;7.13;;;;;;;;;;4990876;28;20434;-62
2023/07/12 01:45:41;;;;;;;16.87;9.60;;;;;;;;;;4990415;28;20053;-61
2023/07/12 01:48:07;;;;;;;15.57;9.00;;;;;;;;;;4990569;28;20046;-61
2023/07/12 01:50:33;;;;;;;12.43;8.57;;;;;;;;;;4990810;28;20046;-62
2023/07/12 01:52:59;;;;;;;13.33;8.23;;;;;;;;;;4990199;28;20055;-61
2023/07/12 01:55:25;;;;;;;20.50;10.07;;;;;;;;;;4988940;28;20112;-61
2023/07/12 01:57:51;;;;;;;12.40;8.60;;;;;;;;;;4989413;28;20061;-61
2023/07/12 02:00:17;;;;;;;16.73;8.67;;;;;;;;;;4990217;28;20133;-62
2023/07/12 02:02:43;;;;;;;11.57;7.37;;;;;;;;;;4989489;28;21145;-61
2023/07/12 02:05:10;;;;;;;11.97;7.37;;;;;;;;;;4990143;28;20563;-61
2023/07/12 02:07:36;;;;;;;10.03;7.03;;;;;;;;;;4990480;28;20046;-61
2023/07/12 02:10:19;;;;;;;14.80;8.40;;;;;;;;;;4989917;28;20097;-61
2023/07/12 02:12:44;;;;;;;11.80;7.88;;;;;;;;;;4989770;28;20088;-62
2023/07/12 02:15:11;;;;;;;12.97;8.40;;;;;;;;;;4990427;28;20046;-62
2023/07/12 02:17:38;;;;;;;13.80;8.97;;;;;;;;;;4988198;28;20405;-62
2023/07/12 02:20:04;;;;;;;17.83;9.80;;;;;;;;;;4972014;28;20050;-61
2023/07/12 02:22:30;;;;;;;22.47;11.37;;;;;;;;;;4988998;28;20511;-62
2023/07/12 02:24:57;;;;;;;15.90;9.20;;;;;;;;;;4989705;28;20046;-62
2023/07/12 02:27:23;;;;;;;15.10;8.80;;;;;;;;;;4989926;28;20054;-61
2023/07/12 02:29:49;;;;;;;16.80;9.00;;;;;;;;;;4990254;28;20054;-61
2023/07/12 02:32:15;;;;;;;15.50;8.20;;;;;;;;;;4990145;28;20463;-61
2023/07/12 02:34:41;;;;;;;19.90;8.43;;;;;;;;;;4989937;28;20042;-62
2023/07/12 02:37:07;;;;;;;16.13;8.70;;;;;;;;;;4988582;28;20108;-61
2023/07/12 02:39:33;;;;;;;15.67;6.93;;;;;;;;;;4989554;28;20046;-61
2023/07/12 02:41:59;;;;;;;19.50;8.07;;;;;;;;;;4989764;28;20116;-61
2023/07/12 02:44:25;;;;;;;19.07;7.53;;;;;;;;;;4988982;28;20050;-61
2023/07/12 02:46:51;;;;;;;16.07;7.07;;;;;;;;;;4988870;28;20084;-61
2023/07/12 02:49:17;;;;;;;17.97;9.60;;;;;;;;;;4989621;28;20054;-62
2023/07/12 02:51:43;;;;;;;24.07;8.70;;;;;;;;;;4989680;28;20625;-62
2023/07/12 02:54:09;;;;;;;22.70;9.60;;;;;;;;;;4989201;28;20062;-61
2023/07/12 02:56:35;;;;;;;20.60;8.93;;;;;;;;;;4989254;28;20062;-61
2023/07/12 02:59:01;;;;;;;15.00;6.70;;;;;;;;;;4988653;28;20642;-62
2023/07/12 03:01:27;;;;;;;19.53;7.57;;;;;;;;;;4988156;28;20050;-61
2023/07/12 03:03:53;;;;;;;22.27;7.53;;;;;;;;;;4989614;28;20105;-62
2023/07/12 03:06:19;;;;;;;26.57;8.63;;;;;;;;;;4989453;28;20046;-62
2023/07/12 03:08:45;;;;;;;24.00;7.90;;;;;;;;;;4989329;28;20038;-62
2023/07/12 03:11:12;;;;;;;25.10;9.37;;;;;;;;;;4989485;28;20467;-62
2023/07/12 03:13:38;;;;;;;34.43;9.37;;;;;;;;;;4988890;28;20054;-61
2023/07/12 03:16:05;;;;;;;20.87;9.70;;;;;;;;;;4989315;28;20479;-62
2023/07/12 03:18:31;;;;;;;20.97;8.53;;;;;;;;;;4989072;28;20046;-62
2023/07/12 03:21:01;;;;;;;20.70;8.00;;;;;;;;;;4989129;28;20049;-61
2023/07/12 03:23:27;;;;;;;20.50;7.83;;;;;;;;;;4988898;28;20050;-62
2023/07/12 03:25:53;;;;;;;26.50;8.50;;;;;;;;;;4988354;28;20124;-62
2023/07/12 03:28:19;;;;;;;22.27;9.10;;;;;;;;;;4989308;28;20074;-62
2023/07/12 03:30:56;;;;;;;19.97;8.03;;;;;;;;;;4988988;28;20488;-62
2023/07/12 03:33:22;;;;;;;26.67;9.63;;;;;;;;;;4988784;28;20135;-62
2023/07/12 03:35:51;;;;;;;25.00;9.50;;;;;;;;;;4988770;28;20046;-62
2023/07/12 03:38:17;;;;;;;22.47;8.60;;;;;;;;;;4988338;28;20455;-62
2023/07/12 03:40:47;;;;;;;23.00;9.40;;;;;;;;;;4988971;28;20050;-62
2023/07/12 03:43:13;;;;;;;19.50;7.90;;;;;;;;;;4988792;28;20051;-62
2023/07/12 03:45:39;;;;;;;23.03;9.10;;;;;;;;;;4988083;28;20523;-62
2023/07/12 03:48:05;;;;;;;25.77;9.80;;;;;;;;;;4988917;28;20161;-62
2023/07/12 03:50:31;;;;;;;26.30;10.67;;;;;;;;;;4988564;28;20046;-62
2023/07/12 03:52:57;;;;;;;24.10;10.43;;;;;;;;;;4988051;28;20045;-62
2023/07/12 03:55:23;;;;;;;28.67;10.00;;;;;;;;;;4988208;28;20050;-62
2023/07/12 03:57:50;;;;;;;25.40;9.80;;;;;;;;;;4989480;28;20555;-62
2023/07/12 04:00:16;;;;;;;21.77;9.13;;;;;;;;;;4990465;28;20574;-62
2023/07/12 04:02:42;;;;;;;21.43;9.10;;;;;;;;;;4991851;28;20563;-62
2023/07/12 04:05:08;;;;;;;24.47;9.50;;;;;;;;;;4991184;28;20058;-62
2023/07/12 04:07:34;;;;;;;28.47;11.00;;;;;;;;;;4991398;28;20464;-62
2023/07/12 04:10:00;;;;;;;23.67;9.40;;;;;;;;;;4992328;28;20051;-62
2023/07/12 04:12:26;;;;;;;25.60;9.67;;;;;;;;;;4992282;28;20507;-62
2023/07/12 04:14:52;;;;;;;23.73;9.47;;;;;;;;;;4992239;28;20543;-62
2023/07/12 04:17:18;;;;;;;26.30;9.87;;;;;;;;;;4992009;28;20412;-62
2023/07/12 04:19:44;;;;;;;22.30;8.83;;;;;;;;;;4991121;28;20110;-62
2023/07/12 04:22:10;;;;;;;21.80;8.93;;;;;;;;;;4991272;28;20534;-62
2023/07/12 04:24:36;;;;;;;22.57;10.53;;;;;;;;;;4992085;28;20042;-62
2023/07/12 04:27:02;;;;;;;21.77;9.70;;;;;;;;;;4974792;28;20058;-62
2023/07/12 04:29:28;;;;;;;19.33;9.90;;;;;;;;;;4992211;28;20054;-62
2023/07/12 04:31:54;;;;;;;19.57;9.43;;;;;;;;;;4990812;28;20056;-61
2023/07/12 04:34:20;;;;;;;20.40;9.27;;;;;;;;;;4974527;28;20564;-62
2023/07/12 04:36:46;;;;;;;21.50;9.27;;;;;;;;;;4991909;28;20046;-62
2023/07/12 04:39:12;;;;;;;17.27;8.23;;;;;;;;;;4991690;28;20488;-62
2023/07/12 04:41:38;;;;;;;25.57;10.03;;;;;;;;;;4990978;28;20061;-62
2023/07/12 04:44:05;;;;;;;17.80;8.27;;;;;;;;;;4990757;28;20046;-62
2023/07/12 04:46:31;;;;;;;23.47;9.43;;;;;;;;;;4991558;28;20042;-62
2023/07/12 04:48:57;;;;;;;19.00;8.27;;;;;;;;;;4991595;28;20049;-62
2023/07/12 04:51:23;;;;;;;16.60;7.43;;;;;;;;;;4991655;28;20193;-62
2023/07/12 04:53:49;;;;;;;22.93;9.03;;;;;;;;;;4991301;28;20058;-62
2023/07/12 04:56:16;;;;;;;19.53;8.80;;;;;;;;;;4991421;28;20837;-62
2023/07/12 04:58:45;;;;;;;23.60;9.30;;;;;;;;;;4990794;28;20054;-62
2023/07/12 05:01:13;;;;;;;20.90;7.77;;;;;;;;;;4973340;28;20522;-62
2023/07/12 05:03:39;;;;;;;17.63;9.83;;;;;;;;;;4991533;28;20086;-62
2023/07/12 05:06:05;;;;;;;19.03;8.70;;;;;;;;;;4990217;28;20124;-62
2023/07/12 05:08:31;;;;;;;21.27;8.67;;;;;;;;;;4990187;28;20104;-62
2023/07/12 05:11:00;;;;;;;28.20;9.17;;;;;;;;;;4991414;28;20543;-62
2023/07/12 05:13:27;;;;;;;16.37;8.70;;;;;;;;;;4991205;28;20053;-62
2023/07/12 05:15:53;;;;;;;18.57;7.97;;;;;;;;;;4973771;28;20050;-62
2023/07/12 05:18:19;;;;;;;18.00;9.33;;;;;;;;;;4990746;28;20492;-62
2023/07/12 05:20:45;;;;;;;24.37;9.87;;;;;;;;;;4990892;28;20540;-62
2023/07/12 05:23:12;;;;;;;23.83;9.03;;;;;;;;;;4991255;28;20113;-62
2023/07/12 05:25:38;;;;;;;22.73;9.37;;;;;;;;;;4990666;28;20042;-62
2023/07/12 05:28:04;;;;;;;23.13;8.03;;;;;;;;;;4988952;28;21388;-62
2023/07/12 05:30:31;;;;;;;19.37;9.03;;;;;;;;;;4990069;28;20096;-62
2023/07/12 05:32:57;;;;;;;24.07;9.10;;;;;;;;;;4990659;28;20064;-64
2023/07/12 05:35:23;;;;;;;18.20;9.53;;;;;;;;;;4990814;28;20053;-62
2023/07/12 05:37:52;;;;;;;20.53;9.27;;;;;;;;;;4989324;28;20623;-62
2023/07/12 05:40:18;;;;;;;22.27;9.87;;;;;;;;;;5002637;28;20048;-61
2023/07/12 05:42:44;;;;;;;25.87;11.57;;;;;;;;;;4990994;28;20042;-62
2023/07/12 05:45:13;;;;;;;18.77;10.60;;;;;;;;;;4990767;28;20377;-62
2023/07/12 05:47:42;;;;;;;25.30;11.67;;;;;;;;;;4990663;28;20108;-62
2023/07/12 05:50:11;;;;;;;19.07;10.33;;;;;;;;;;4955323;28;20050;-62
2023/07/12 05:52:37;;;;;;;25.63;11.87;;;;;;;;;;4970900;28;20063;-62
2023/07/12 05:55:03;;;;;;;20.67;10.13;;;;;;;;;;4980644;28;20061;-62
2023/07/12 05:57:29;;;;;;;29.50;14.43;;;;;;;;;;4990297;28;20412;-62
2023/07/12 05:59:55;;;;;;;19.60;11.20;;;;;;;;;;4988369;28;20041;-62
2023/07/12 06:02:21;;;;;;;22.67;13.17;;;;;;;;;;5009260;28;20500;-61
2023/07/12 06:04:47;;;;;;;21.97;11.43;;;;;;;;;;5004080;28;20053;-62
2023/07/12 06:07:13;;;;;;;26.80;12.07;;;;;;;;;;4990847;28;20097;-62
2023/07/12 06:09:39;;;;;;;25.03;12.10;;;;;;;;;;4990276;28;20049;-61
2023/07/12 06:12:05;;;;;;;19.53;11.90;;;;;;;;;;4989937;28;20054;-62
2023/07/12 06:14:31;;;;;;;23.80;11.40;;;;;;;;;;4989236;28;20050;-61
2023/07/12 06:16:57;;;;;;;20.47;11.90;;;;;;;;;;4989638;28;20065;-61
2023/07/12 06:19:23;;;;;;;19.60;11.40;;;;;;;;;;4989952;28;20046;-61
2023/07/12 06:21:49;;;;;;;23.27;12.53;;;;;;;;;;4989462;28;20049;-61
2023/07/12 06:24:15;;;;;;;25.83;13.07;;;;;;;;;;4989812;28;20054;-61
2023/07/12 06:26:41;;;;;;;18.93;11.60;;;;;;;;;;4989715;28;20078;-61
2023/07/12 06:29:07;;;;;;;15.67;12.10;;;;;;;;;;4989248;28;20054;-61
2023/07/12 06:31:33;;;;;;;21.53;13.10;;;;;;;;;;4989658;28;20109;-61
2023/07/12 06:34:00;;;;;;;20.43;10.77;;;;;;;;;;4989646;28;20126;-61
2023/07/12 06:36:26;;;;;;;23.17;12.40;;;;;;;;;;4989158;28;20046;-61
2023/07/12 06:38:52;;;;;;;20.00;11.20;;;;;;;;;;4988704;28;20047;-61
2023/07/12 06:41:18;;;;;;;19.90;10.20;;;;;;;;;;4989013;28;20043;-61
2023/07/12 06:43:44;;;;;;;20.23;10.00;;;;;;;;;;4994366;28;20515;-61
2023/07/12 06:46:11;;;;;;;21.27;10.50;;;;;;;;;;4975049;28;20051;-61
2023/07/12 06:48:37;;;;;;;19.13;9.67;;;;;;;;;;4993789;28;20049;-62
2023/07/12 06:51:04;;;;;;;19.10;9.33;;;;;;;;;;4993784;28;21030;-61
2023/07/12 06:53:30;;;;;;;16.37;9.17;;;;;;;;;;4987711;28;20080;-61
2023/07/12 06:55:56;;;;;;;19.37;8.20;;;;;;;;;;4984344;28;20050;-61
2023/07/12 06:58:22;;;;;;;19.37;9.47;;;;;;;;;;4986626;28;20389;-61
2023/07/12 07:00:48;;;;;;;15.37;8.13;;;;;;;;;;4988553;28;20427;-61
2023/07/12 07:03:15;;;;;;;19.13;9.00;;;;;;;;;;4988933;28;20129;-61
2023/07/12 07:05:44;;;;;;;17.40;8.60;;;;;;;;;;4988280;28;20061;-61
2023/07/12 07:08:11;;;;;;;17.37;8.83;;;;;;;;;;4990538;28;20078;-61
2023/07/12 07:10:37;;;;;;;20.63;7.43;;;;;;;;;;5008213;28;20073;-61
2023/07/12 07:13:03;;;;;;;15.23;7.10;;;;;;;;;;4998328;28;20500;-61
2023/07/12 07:15:29;;;;;;;15.03;6.97;;;;;;;;;;4993906;28;20489;-60
2023/07/12 07:17:56;;;;;;;16.60;7.13;;;;;;;;;;4973012;28;20071;-60
2023/07/12 07:20:22;;;;;;;12.87;6.63;;;;;;;;;;4989468;28;20408;-61
2023/07/12 07:22:48;;;;;;;13.40;5.87;;;;;;;;;;4989389;28;20045;-61
2023/07/12 07:25:14;;;;;;;13.13;5.97;;;;;;;;;;4989183;28;20420;-61
2023/07/12 07:27:40;;;;;;;12.40;6.60;;;;;;;;;;4988572;28;20057;-60
2023/07/12 07:30:07;;;;;;;15.97;6.53;;;;;;;;;;4988912;28;20523;-60
2023/07/12 07:32:32;;;;;;;22.60;6.63;;;;;;;;;;4971727;28;20546;-61
2023/07/12 07:34:59;;;;;;;12.30;6.53;;;;;;;;;;4988940;28;20046;-60
2023/07/12 07:37:25;;;;;;;22.87;6.90;;;;;;;;;;4988712;28;20097;-60
2023/07/12 07:39:51;;;;;;;14.13;5.80;;;;;;;;;;4988326;28;20407;-60
2023/07/12 07:42:17;;;;;;;18.37;7.87;;;;;;;;;;4988285;28;20050;-60
2023/07/12 07:44:43;;;;;;;15.67;6.07;;;;;;;;;;4988365;28;20492;-60
2023/07/12 07:47:09;;;;;;;12.73;5.27;;;;;;;;;;4979990;28;20042;-60
2023/07/12 07:49:35;;;;;;;16.57;6.20;;;;;;;;;;4987942;28;20046;-61
2023/07/12 07:52:02;;;;;;;18.50;5.93;;;;;;;;;;4957643;28;20053;-60
2023/07/12 07:54:28;;;;;;;11.33;6.03;;;;;;;;;;4978781;28;20588;-60
2023/07/12 07:56:54;;;;;;;12.33;4.60;;;;;;;;;;4970058;28;20112;-59
2023/07/12 07:59:20;;;;;;;14.67;5.53;;;;;;;;;;4980834;28;20048;-60
2023/07/12 08:01:46;;;;;;;11.07;5.50;;;;;;;;;;4970404;28;20173;-60
2023/07/12 08:04:12;;;;;;;10.00;5.23;;;;;;;;;;4968096;28;20051;-59
2023/07/12 08:06:39;;;;;;;15.13;4.47;;;;;;;;;;4966969;28;20548;-59
2023/07/12 08:09:06;;;;;;;12.60;4.30;;;;;;;;;;4970382;28;20069;-59
2023/07/12 08:11:32;;;;;;;11.80;5.27;;;;;;;;;;4986938;28;20055;-60
2023/07/12 08:13:58;;;;;;;11.33;4.20;;;;;;;;;;4986225;28;20424;-59
2023/07/12 08:16:26;;;;;;;13.30;5.43;;;;;;;;;;4987098;28;20046;-59
2023/07/12 08:18:53;;;;;;;8.90;4.30;;;;;;;;;;4987214;28;20088;-59
2023/07/12 08:21:19;;;;;;;11.03;4.60;;;;;;;;;;4988989;28;20046;-59
2023/07/12 08:23:45;;;;;;;14.67;4.60;;;;;;;;;;4988073;28;20049;-59
2023/07/12 08:26:11;;;;;;;14.70;4.57;;;;;;;;;;4988684;28;20073;-58
2023/07/12 08:28:37;;;;;;;10.87;3.93;;;;;;;;;;4988128;28;20050;-59
2023/07/12 08:31:03;;;;;;;14.20;4.37;;;;;;;;;;4988929;28;20054;-59
2023/07/12 08:33:29;;;;;;;12.07;4.20;;;;;;;;;;4988498;28;20453;-59
2023/07/12 08:35:55;;;;;;;10.73;4.37;;;;;;;;;;4988908;28;20136;-58
2023/07/12 08:38:21;;;;;;;13.57;5.07;;;;;;;;;;4988517;28;20043;-59
2023/07/12 08:40:49;;;;;;;12.20;4.63;;;;;;;;;;4988949;28;20046;-59
2023/07/12 08:43:19;;;;;;;10.90;4.90;;;;;;;;;;4989351;28;20531;-59
2023/07/12 08:45:47;;;;;;;11.40;5.43;;;;;;;;;;4991616;28;20054;-59
2023/07/12 08:48:20;;;;;;;11.70;6.07;;;;;;;;;;4990829;28;20061;-59
2023/07/12 08:50:47;;;;;;;15.10;6.93;;;;;;;;;;4992266;28;20046;-59
2023/07/12 08:53:29;;;;;;;14.70;6.50;;;;;;;;;;4991623;28;20439;-59
2023/07/12 08:55:59;;;;;;;19.63;8.30;;;;;;;;;;4991971;28;20050;-59
2023/07/12 08:58:27;;;;;;;25.80;9.73;;;;;;;;;;4988947;28;20078;-59
2023/07/12 09:01:03;;;;;;;19.80;9.50;;;;;;;;;;4991768;28;20408;-60
2023/07/12 09:03:29;;;;;;;25.23;9.67;;;;;;;;;;4991156;28;20042;-60
2023/07/12 09:05:55;;;;;;;21.53;11.07;;;;;;;;;;4992211;28;20360;-60
2023/07/12 09:08:28;;;;;;;19.40;8.70;;;;;;;;;;5008977;28;20045;-61
2023/07/12 09:10:56;;;;;;;19.23;8.65;;;;;;;;;;4989402;28;20470;-61
2023/07/12 09:13:31;;;;;;;18.67;8.23;;;;;;;;;;4998888;28;20050;-60
2023/07/12 09:15:57;;;;;;;19.53;8.80;;;;;;;;;;4984664;28;20093;-60
2023/07/12 09:18:26;;;;;;;15.43;6.70;;;;;;;;;;4983180;28;20046;-60
2023/07/12 09:20:52;;;;;;;11.57;6.13;;;;;;;;;;4971884;28;20583;-60
2023/07/12 09:23:18;;;;;;;12.03;7.00;;;;;;;;;;4954969;28;20133;-59
2023/07/12 09:25:47;;;;;;;15.50;5.10;;;;;;;;;;4981625;28;20149;-60
2023/07/12 09:28:14;;;;;;;11.70;5.27;;;;;;;;;;4990636;28;20054;-60
2023/07/12 09:30:41;;;;;;;13.77;5.10;;;;;;;;;;4991071;28;20449;-60
2023/07/12 09:33:13;;;;;;;11.63;5.47;;;;;;;;;;4990777;28;20464;-60
2023/07/12 09:35:44;;;;;;;13.53;5.27;;;;;;;;;;4989567;28;20089;-59
2023/07/12 09:38:12;;;;;;;12.73;5.50;;;;;;;;;;5000984;28;20054;-59
2023/07/12 09:40:42;;;;;;;10.90;4.80;;;;;;;;;;5004235;28;20453;-60
2023/07/12 09:43:34;;;;;;;9.20;4.63;;;;;;;;;;4990774;28;20072;-60
2023/07/12 09:46:03;;;;;;;11.93;4.50;;;;;;;;;;4987411;28;20083;-60
2023/07/12 09:48:35;;;;;;;14.23;5.30;;;;;;;;;;4990175;28;20512;-60
2023/07/12 09:51:20;;;;;;;14.52;5.13;;;;;;;;;;4988552;28;20544;-59
2023/07/12 09:53:48;;;;;;;11.13;4.80;;;;;;;;;;4970830;28;20066;-60
2023/07/12 09:56:19;;;;;;;12.10;4.83;;;;;;;;;;4986516;28;20038;-59
2023/07/12 09:58:51;;;;;;;12.37;4.90;;;;;;;;;;4971226;28;20042;-60
2023/07/12 10:01:36;;;;;;;11.50;4.33;;;;;;;;;;4971492;28;20181;-59
2023/07/12 10:04:07;;;;;;;12.07;4.67;;;;;;;;;;4986622;28;20176;-59
2023/07/12 10:06:38;;;;;;;9.87;4.60;;;;;;;;;;4990287;28;20038;-60
2023/07/12 10:09:10;;;;;;;10.57;4.27;;;;;;;;;;4990364;28;20050;-60
2023/07/12 10:11:40;;;;;;;12.65;3.80;;;;;;;;;;4990356;28;20101;-59
2023/07/12 10:14:10;;;;;;;9.73;3.00;;;;;;;;;;4988900;28;20090;-59
2023/07/12 10:16:39;;;;;;;10.43;3.37;;;;;;;;;;4990542;28;20141;-59
2023/07/12 10:19:14;;;;;;;9.17;2.80;;;;;;;;;;4973919;28;20112;-60
2023/07/12 10:21:40;;;;;;;9.77;2.70;;;;;;;;;;4988180;28;20045;-59
2023/07/12 10:24:12;;;;;;;8.27;1.90;;;;;;;;;;4988803;28;20128;-59
2023/07/12 10:26:38;;;;;;;7.53;2.00;;;;;;;;;;4988302;28;20049;-59
2023/07/12 10:29:07;;;;;;;4.97;2.20;;;;;;;;;;4970628;28;20046;-59
2023/07/12 10:31:36;;;;;;;6.13;2.63;;;;;;;;;;4971010;28;20075;-60
2023/07/12 10:34:15;;;;;;;5.70;2.10;;;;;;;;;;4971356;28;20041;-59
2023/07/12 10:36:43;;;;;;;5.13;1.57;;;;;;;;;;4971099;28;20046;-60
2023/07/12 10:39:09;;;;;;;6.33;1.50;;;;;;;;;;4970290;28;20145;-59
2023/07/12 10:41:43;;;;;;;5.13;1.73;;;;;;;;;;4983340;28;20038;-60
2023/07/12 10:44:20;;;;;;;6.10;1.90;;;;;;;;;;4989322;28;20054;-59
2023/07/12 10:46:49;;;;;;;6.30;2.33;;;;;;;;;;4989454;28;20057;-60
2023/07/12 10:49:17;;;;;;;4.33;1.50;;;;;;;;;;4988475;28;20098;-60
2023/07/12 10:51:45;;;;;;;5.40;1.40;;;;;;;;;;4989388;28;20133;-61
2023/07/12 10:54:30;;;;;;;7.93;1.42;;;;;;;;;;4988668;28;20412;-59
2023/07/12 10:56:56;;;;;;;4.23;1.37;;;;;;;;;;4989385;28;20066;-59
2023/07/12 10:59:30;;;;;;;6.80;1.35;;;;;;;;;;4989343;28;20080;-59
2023/07/12 11:01:57;;;;;;;5.13;1.57;;;;;;;;;;4989367;28;20050;-60
2023/07/12 11:04:32;;;;;;;4.83;1.67;;;;;;;;;;4989292;28;20443;-59
2023/07/12 11:06:58;;;;;;;5.50;1.50;;;;;;;;;;4988610;28;20089;-60
2023/07/12 11:09:24;;;;;;;3.60;1.70;;;;;;;;;;4988929;28;20096;-60
2023/07/12 11:11:57;;;;;;;6.80;1.77;;;;;;;;;;4988541;28;20057;-59
2023/07/12 11:14:43;;;;;;;6.87;1.67;;;;;;;;;;4989131;28;20050;-60
2023/07/12 11:17:09;;;;;;;8.17;1.93;;;;;;;;;;4988835;28;20483;-60
2023/07/12 11:19:42;;;;;;;5.05;1.35;;;;;;;;;;4988878;28;20555;-60
2023/07/12 11:22:12;;;;;;;5.85;1.23;;;;;;;;;;4988940;28;20500;-60
2023/07/12 11:24:39;;;;;;;5.00;1.38;;;;;;;;;;4988737;28;20420;-60
2023/07/12 11:27:09;;;;;;;6.18;1.67;;;;;;;;;;4988088;28;20046;-60
2023/07/12 11:29:36;;;;;;;5.03;1.38;;;;;;;;;;4988771;28;20042;-60
2023/07/12 11:32:05;;;;;;;5.13;1.42;;;;;;;;;;4988581;28;20049;-60
2023/07/12 11:34:32;;;;;;;4.93;1.83;;;;;;;;;;4988258;28;20046;-60
2023/07/12 11:36:59;;;;;;;5.63;1.38;;;;;;;;;;4988673;28;20451;-60
2023/07/12 11:39:29;;;;;;;3.10;0.82;;;;;;;;;;4988698;28;20053;-60
2023/07/12 11:41:59;;;;;;;3.65;1.23;;;;;;;;;;4988517;28;20050;-60
2023/07/12 11:44:25;;;;;;;2.88;1.13;;;;;;;;;;4988657;28;20054;-60
2023/07/12 11:46:52;;;;;;;3.45;1.13;;;;;;;;;;4988354;28;20058;-60
2023/07/12 11:49:19;;;;;;;4.03;1.15;;;;;;;;;;4988563;28;20043;-60
2023/07/12 11:51:47;;;;;;;4.85;1.30;;;;;;;;;;4988382;28;20057;-60
2023/07/12 11:54:17;;;;;;;4.35;1.70;;;;;;;;;;4988167;28;20141;-60
2023/07/12 11:56:44;;;;;;;3.22;1.30;;;;;;;;;;4987989;28;20050;-60
2023/07/12 11:59:14;;;;;;;2.55;1.00;;;;;;;;;;4988639;28;20042;-60
2023/07/12 12:01:40;;;;;;;3.85;1.15;;;;;;;;;;4988792;28;20050;-60
2023/07/12 12:04:06;;;;;;;3.65;1.27;;;;;;;;;;4988749;28;20059;-60
2023/07/12 12:06:33;;;;;;;2.80;1.13;;;;;;;;;;4988272;28;20065;-60
2023/07/12 12:08:59;;;;;;;5.65;1.45;;;;;;;;;;4988451;28;20260;-60
2023/07/12 12:11:29;;;;;;;7.15;1.80;;;;;;;;;;4988577;28;20054;-60
2023/07/12 12:13:57;;;;;;;9.32;2.10;;;;;;;;;;4988415;28;20057;-61
2023/07/12 12:16:26;;;;;;;6.38;1.50;;;;;;;;;;4988198;28;20050;-61
2023/07/12 12:18:58;;;;;;;3.72;1.33;;;;;;;;;;4990239;28;20046;-60
2023/07/12 12:21:24;;;;;;;3.05;1.27;;;;;;;;;;4992523;28;20065;-60
2023/07/12 12:23:57;;;;;;;4.65;1.40;;;;;;;;;;4991650;28;20050;-60
2023/07/12 12:26:25;;;;;;;2.63;1.00;;;;;;;;;;4991852;28;20043;-60
2023/07/12 12:28:52;;;;;;;3.38;1.27;;;;;;;;;;4991570;28;20054;-60
2023/07/12 12:31:20;;;;;;;3.75;1.23;;;;;;;;;;4992122;28;20050;-61
2023/07/12 12:33:51;;;;;;;1.48;0.80;;;;;;;;;;4991775;28;20054;-60
2023/07/12 12:36:20;;;;;;;2.80;1.10;;;;;;;;;;4992028;28;20397;-61
2023/07/12 12:38:57;;;;;;;4.25;1.58;;;;;;;;;;4991666;28;20076;-60
2023/07/12 12:41:23;;;;;;;3.60;1.05;;;;;;;;;;4991288;28;20498;-60
2023/07/12 12:43:56;;;;;;;2.92;0.80;;;;;;;;;;4991484;28;20538;-61
2023/07/12 12:46:22;;;;;;;4.32;1.00;;;;;;;;;;4991816;28;20078;-60
2023/07/12 12:48:51;;;;;;;3.45;1.00;;;;;;;;;;4991305;28;20053;-60
2023/07/12 12:51:18;;;;;;;3.60;1.00;;;;;;;;;;4991268;28;20051;-61
2023/07/12 12:53:44;;;;;;;3.20;1.20;;;;;;;;;;4991268;28;20046;-61
2023/07/12 12:56:14;;;;;;;5.00;1.23;;;;;;;;;;4991292;28;20043;-61
2023/07/12 12:58:40;;;;;;;4.90;1.58;;;;;;;;;;4990982;28;20538;-62
2023/07/12 13:01:08;;;;;;;2.28;0.93;;;;;;;;;;4991203;28;20052;-61
2023/07/12 13:03:36;;;;;;;2.28;0.80;;;;;;;;;;4991342;28;20046;-61
2023/07/12 13:06:02;;;;;;;5.38;0.85;;;;;;;;;;4991368;28;20047;-61
2023/07/12 13:08:28;;;;;;;2.58;0.93;;;;;;;;;;4991570;28;20077;-60
2023/07/12 13:10:54;;;;;;;2.40;0.90;;;;;;;;;;4991003;28;20073;-61
2023/07/12 13:13:20;;;;;;;4.03;1.60;;;;;;;;;;4991265;28;20149;-61
2023/07/12 13:15:47;;;;;;;3.70;1.10;;;;;;;;;;4991281;28;20042;-61
2023/07/12 13:18:14;;;;;;;4.22;0.90;;;;;;;;;;4990573;28;20994;-61
2023/07/12 13:20:40;;;;;;;3.38;1.00;;;;;;;;;;4991176;28;20112;-60
2023/07/12 13:23:08;;;;;;;2.78;1.00;;;;;;;;;;4991324;28;20050;-60
2023/07/12 13:25:36;;;;;;;4.95;1.10;;;;;;;;;;4990960;28;20054;-61
2023/07/12 13:28:01;;;;;;;4.43;1.15;;;;;;;;;;4990311;28;20042;-60
2023/07/12 13:30:29;;;;;;;3.22;1.00;;;;;;;;;;4990324;28;20050;-61
2023/07/12 13:32:55;;;;;;;4.40;1.65;;;;;;;;;;4991060;28;20050;-60
2023/07/12 13:35:23;;;;;;;3.90;1.20;;;;;;;;;;4990671;28;20493;-60
2023/07/12 13:37:49;;;;;;;2.65;0.88;;;;;;;;;;4990325;28;20069;-60
2023/07/12 13:40:16;;;;;;;2.70;0.98;;;;;;;;;;4990137;28;20504;-60
2023/07/12 13:42:44;;;;;;;2.63;0.98;;;;;;;;;;4989152;28;20041;-61
2023/07/12 13:45:11;;;;;;;3.88;0.90;;;;;;;;;;4990667;28;20086;-60
2023/07/12 13:47:37;;;;;;;3.67;0.95;;;;;;;;;;4990437;28;20057;-60
2023/07/12 13:50:07;;;;;;;2.67;1.02;;;;;;;;;;4990496;28;20393;-61
2023/07/12 13:52:33;;;;;;;3.58;1.10;;;;;;;;;;4990095;28;20093;-60
2023/07/12 13:55:00;;;;;;;3.30;1.00;;;;;;;;;;4990062;28;20116;-60
2023/07/12 13:57:31;;;;;;;2.95;1.10;;;;;;;;;;4990024;28;20043;-61
2023/07/12 13:59:58;;;;;;;2.58;1.15;;;;;;;;;;4990510;28;20046;-61
2023/07/12 14:02:25;;;;;;;4.82;1.35;;;;;;;;;;4990307;28;20129;-60
2023/07/12 14:04:55;;;;;;;2.45;1.00;;;;;;;;;;4989683;28;20042;-60
2023/07/12 14:07:24;;;;;;;4.80;1.20;;;;;;;;;;4990327;28;20424;-60
2023/07/12 14:09:50;;;;;;;3.53;1.15;;;;;;;;;;4990193;28;20484;-60
2023/07/12 14:12:17;;;;;;;3.85;0.93;;;;;;;;;;4990325;28;20062;-60
2023/07/12 14:14:44;;;;;;;2.10;1.00;;;;;;;;;;4990112;28;20406;-61
2023/07/12 14:17:11;;;;;;;2.78;0.77;;;;;;;;;;4990027;28;20038;-61
2023/07/12 14:19:37;;;;;;;1.98;0.65;;;;;;;;;;4990070;28;20129;-60
2023/07/12 14:22:05;;;;;;;3.30;1.10;;;;;;;;;;4989635;28;20492;-60
2023/07/12 14:24:31;;;;;;;2.75;0.85;;;;;;;;;;4989781;28;20086;-61
2023/07/12 14:26:57;;;;;;;4.03;1.25;;;;;;;;;;4989683;28;20042;-60
2023/07/12 14:29:24;;;;;;;3.67;1.02;;;;;;;;;;4989930;28;20097;-60
2023/07/12 14:31:51;;;;;;;5.43;1.80;;;;;;;;;;4988918;28;20062;-61
2023/07/12 14:34:18;;;;;;;2.35;0.95;;;;;;;;;;4989809;28;20058;-61
2023/07/12 14:36:44;;;;;;;2.97;1.10;;;;;;;;;;4989312;28;20088;-60